Time;durP1;ratioP1;P1;durP2;ratioP2;P2;SDS_P1;SDS_P2;PMS_P1;PMS_P2;Temp;Humidity;BMP_temperature;BMP_pressure;BME280_temperature;BME280_humidity;BME280_pressure;Samples;Min_cycle;Max_cycle;Signal;HPM_P1;HPM_P2
2023/12/01 00:01:30;;;;;;;43.63;14.70;;;;;;;9.08;51.64;100518.09;5012064;28;20050;-72
2023/12/01 00:03:55;;;;;;;45.33;15.30;;;;;;;8.64;51.79;100522.78;5010165;28;20033;-73
2023/12/01 00:06:21;;;;;;;44.43;15.33;;;;;;;8.18;53.12;100523.91;5003249;28;20117;-72
2023/12/01 00:08:46;;;;;;;39.73;13.33;;;;;;;8.25;53.18;100520.38;4993631;28;20030;-72
2023/12/01 00:11:11;;;;;;;38.90;14.37;;;;;;;7.50;53.62;100528.47;4994763;28;20026;-72
2023/12/01 00:13:36;;;;;;;54.73;13.10;;;;;;;7.70;54.07;100533.66;4998472;28;20084;-72
2023/12/01 00:16:02;;;;;;;43.10;14.87;;;;;;;7.94;53.79;100536.16;4997317;28;20030;-72
2023/12/01 00:18:28;;;;;;;43.90;14.27;;;;;;;8.44;53.00;100531.56;5010820;28;20125;-72
2023/12/01 00:20:53;;;;;;;53.17;14.27;;;;;;;8.40;51.50;100540.28;5011198;28;20536;-72
2023/12/01 00:23:19;;;;;;;53.43;14.80;;;;;;;8.23;53.63;100540.38;5009930;28;20504;-72
2023/12/01 00:25:45;;;;;;;47.83;14.07;;;;;;;8.39;52.79;100542.88;4998898;28;20030;-72
2023/12/01 00:28:10;;;;;;;43.63;13.70;;;;;;;7.29;55.14;100557.13;5011080;28;20041;-72
2023/12/01 00:30:36;;;;;;;38.63;12.27;;;;;;;6.05;57.87;100550.00;5010464;28;20021;-72
2023/12/01 00:33:01;;;;;;;40.40;13.83;;;;;;;6.52;56.61;100558.81;5010302;28;20108;-72
2023/12/01 00:35:26;;;;;;;37.77;13.10;;;;;;;6.38;58.02;100558.78;5011240;28;20044;-72
2023/12/01 00:37:52;;;;;;;40.27;14.40;;;;;;;6.21;58.86;100561.28;5010385;28;20033;-72
2023/12/01 00:40:17;;;;;;;34.10;14.13;;;;;;;6.39;59.11;100565.72;5010467;28;20048;-72
2023/12/01 00:42:42;;;;;;;40.23;13.43;;;;;;;6.67;57.66;100569.22;5010031;28;20366;-72
2023/12/01 00:45:08;;;;;;;47.83;13.47;;;;;;;6.39;57.98;100576.09;5011453;28;20030;-72
2023/12/01 00:47:34;;;;;;;38.13;12.77;;;;;;;6.12;57.37;100575.13;5010823;28;20041;-72
2023/12/01 00:50:00;;;;;;;43.77;13.53;;;;;;;6.09;59.65;100581.16;5012471;28;20034;-73
2023/12/01 00:52:25;;;;;;;31.07;10.93;;;;;;;5.87;59.22;100582.75;5010163;28;20057;-72
2023/12/01 00:54:51;;;;;;;45.50;13.00;;;;;;;7.03;56.06;100595.25;5010958;28;20064;-72
2023/12/01 00:57:16;;;;;;;37.43;11.13;;;;;;;6.88;56.07;100586.59;5015741;28;20037;-72
2023/12/01 00:59:42;;;;;;;38.20;12.70;;;;;;;6.91;56.77;100586.59;4990960;28;20482;-72
2023/12/01 01:02:08;;;;;;;36.37;11.53;;;;;;;6.21;57.30;100588.13;4999908;28;20050;-72
2023/12/01 01:04:34;;;;;;;34.93;11.03;;;;;;;6.12;57.47;100590.69;5018728;28;20489;-72
2023/12/01 01:07:00;;;;;;;27.10;10.90;;;;;;;6.41;57.04;100592.53;5010638;28;20068;-72
2023/12/01 01:09:25;;;;;;;27.13;9.67;;;;;;;6.52;56.27;100597.75;5010829;28;20053;-73
2023/12/01 01:11:51;;;;;;;30.80;10.37;;;;;;;5.89;56.36;100596.63;5003968;28;20058;-72
2023/12/01 01:14:16;;;;;;;29.40;10.77;;;;;;;5.61;58.52;100609.38;4989602;28;20026;-72
2023/12/01 01:16:41;;;;;;;34.30;10.23;;;;;;;5.95;57.54;100612.19;4995956;28;20531;-72
2023/12/01 01:19:07;;;;;;;31.17;10.53;;;;;;;5.95;58.09;100607.00;5009721;28;20018;-72
2023/12/01 01:21:32;;;;;;;28.10;11.07;;;;;;;6.54;57.54;100612.47;5008879;28;20025;-73
2023/12/01 01:23:58;;;;;;;31.33;10.90;;;;;;;6.81;56.02;100610.81;5011841;28;20045;-72
2023/12/01 01:26:23;;;;;;;30.73;10.63;;;;;;;6.48;57.49;100612.44;5026202;28;20017;-72
2023/12/01 01:28:48;;;;;;;35.00;10.03;;;;;;;6.84;56.39;100610.84;5004081;28;20196;-73
2023/12/01 01:31:14;;;;;;;25.40;10.80;;;;;;;7.12;55.52;100611.72;5009533;28;20010;-73
2023/12/01 01:33:39;;;;;;;34.10;11.50;;;;;;;7.26;54.61;100618.66;4990120;28;20498;-72
2023/12/01 01:36:05;;;;;;;27.40;9.17;;;;;;;6.52;57.29;100619.38;5008930;28;20033;-72
2023/12/01 01:38:30;;;;;;;24.40;8.93;;;;;;;6.27;56.59;100621.88;4993999;28;20552;-72
2023/12/01 01:40:55;;;;;;;28.53;10.13;;;;;;;6.46;56.95;100619.38;4999473;28;20030;-71
2023/12/01 01:43:22;;;;;;;28.37;10.13;;;;;;;6.73;56.00;100620.31;5006543;28;20121;-72
2023/12/01 01:46:02;;;;;;;25.87;8.93;;;;;;;6.77;55.76;100624.66;5010271;28;20049;-72
2023/12/01 01:48:28;;;;;;;34.07;10.00;;;;;;;5.76;57.40;100631.97;5009142;28;20527;-72
2023/12/01 01:50:54;;;;;;;22.27;7.97;;;;;;;5.21;60.71;100627.22;5010161;28;20022;-71
2023/12/01 01:53:19;;;;;;;27.27;10.80;;;;;;;5.87;58.75;100626.84;4993696;28;20474;-72
2023/12/01 01:55:45;;;;;;;26.80;9.63;;;;;;;5.95;57.64;100625.16;4990999;28;20027;-72
2023/12/01 01:58:12;;;;;;;26.97;9.43;;;;;;;6.54;57.30;100628.06;5001171;28;20026;-71
2023/12/01 02:00:38;;;;;;;26.57;8.43;;;;;;;6.38;57.28;100628.88;5010213;28;20543;-71
2023/12/01 02:03:03;;;;;;;23.13;8.63;;;;;;;5.55;58.81;100637.88;5007552;28;20046;-72
2023/12/01 02:05:29;;;;;;;21.80;7.73;;;;;;;5.24;59.22;100641.94;5009524;28;20057;-71
2023/12/01 02:07:54;;;;;;;27.93;9.60;;;;;;;5.63;58.80;100644.84;5017606;28;20030;-72
2023/12/01 02:10:20;;;;;;;22.27;8.07;;;;;;;5.82;58.72;100636.31;4990420;28;20486;-72
2023/12/01 02:12:46;;;;;;;29.20;10.77;;;;;;;5.26;60.23;100641.09;5001048;28;20060;-72
2023/12/01 02:15:11;;;;;;;43.23;10.30;;;;;;;5.50;59.53;100644.75;5013325;28;20026;-72
2023/12/01 02:17:38;;;;;;;34.40;11.03;;;;;;;6.33;56.97;100646.16;5014359;28;20097;-72
2023/12/01 02:20:05;;;;;;;30.53;10.77;;;;;;;6.65;56.15;100640.19;5014420;28;20030;-72
2023/12/01 02:22:31;;;;;;;32.20;8.93;;;;;;;6.15;58.21;100629.63;5011240;28;20377;-72
2023/12/01 02:24:57;;;;;;;29.37;11.77;;;;;;;6.64;57.75;100638.50;5014470;28;20022;-72
2023/12/01 02:27:22;;;;;;;36.43;11.40;;;;;;;6.36;58.65;100643.56;5011920;28;20048;-72
2023/12/01 02:29:47;;;;;;;28.17;9.53;;;;;;;7.39;55.86;100635.13;4993452;28;20023;-73
2023/12/01 02:32:13;;;;;;;32.90;11.03;;;;;;;7.22;55.48;100638.56;5010866;28;20542;-72
2023/12/01 02:34:38;;;;;;;28.43;9.43;;;;;;;7.73;53.94;100640.31;4997206;28;20040;-72
2023/12/01 02:37:04;;;;;;;26.23;7.77;;;;;;;6.67;56.38;100635.91;5012402;28;20022;-72
2023/12/01 02:39:30;;;;;;;31.50;9.73;;;;;;;6.94;55.90;100641.16;4993742;28;20057;-72
2023/12/01 02:41:55;;;;;;;25.10;9.07;;;;;;;6.13;56.66;100641.75;4994007;28;20061;-72
2023/12/01 02:44:20;;;;;;;19.10;7.87;;;;;;;6.65;56.62;100640.19;5010172;28;20432;-72
2023/12/01 02:46:46;;;;;;;26.50;7.80;;;;;;;5.86;57.23;100653.63;5010975;28;20085;-72
2023/12/01 02:49:11;;;;;;;28.97;8.73;;;;;;;6.27;56.95;100650.44;5009047;28;20088;-72
2023/12/01 02:51:36;;;;;;;24.07;7.67;;;;;;;6.19;55.89;100646.94;5013845;28;20059;-72
2023/12/01 02:54:02;;;;;;;20.67;9.07;;;;;;;6.05;57.05;100643.44;4998021;28;20505;-72
2023/12/01 02:56:27;;;;;;;18.27;8.03;;;;;;;6.17;57.26;100643.50;4993683;28;20112;-72
2023/12/01 02:58:53;;;;;;;21.00;7.20;;;;;;;6.58;56.05;100639.31;5003316;28;20120;-72
2023/12/01 03:01:18;;;;;;;20.40;7.63;;;;;;;6.12;56.81;100642.59;5011833;28;20030;-72
2023/12/01 03:03:43;;;;;;;20.60;7.50;;;;;;;6.40;55.82;100646.19;5012967;28;20427;-72
2023/12/01 03:06:09;;;;;;;20.63;6.23;;;;;;;5.87;57.52;100645.00;5011697;28;20050;-72
2023/12/01 03:08:34;;;;;;;16.17;6.53;;;;;;;5.94;57.75;100646.78;5014198;28;20037;-73
2023/12/01 03:11:06;;;;;;;19.27;6.10;;;;;;;6.13;56.83;100643.44;5001207;28;20033;-71
2023/12/01 03:13:31;;;;;;;19.20;7.03;;;;;;;5.91;56.98;100651.94;5012168;28;20026;-73
2023/12/01 03:15:57;;;;;;;16.97;6.27;;;;;;;5.87;57.57;100651.94;5012996;28;20474;-73
2023/12/01 03:18:22;;;;;;;32.80;8.07;;;;;;;5.59;58.77;100644.81;5012056;28;20014;-73
2023/12/01 03:20:48;;;;;;;20.87;7.33;;;;;;;6.01;57.58;100645.13;4998431;28;20061;-73
2023/12/01 03:23:13;;;;;;;24.63;7.00;;;;;;;6.63;56.40;100637.59;4993082;28;20027;-73
2023/12/01 03:25:38;;;;;;;19.50;7.10;;;;;;;7.00;54.89;100642.88;4994677;28;20480;-73
2023/12/01 03:28:04;;;;;;;32.70;8.03;;;;;;;6.90;54.97;100634.22;5009395;28;20026;-73
2023/12/01 03:30:29;;;;;;;25.93;8.60;;;;;;;6.92;55.53;100640.28;4999038;28;20022;-73
2023/12/01 03:32:55;;;;;;;24.03;7.53;;;;;;;6.87;55.15;100641.13;4992796;28;20125;-73
2023/12/01 03:35:26;;;;;;;27.27;8.93;;;;;;;7.29;53.33;100645.53;5010680;28;20038;-73
2023/12/01 03:37:57;;;;;;;25.97;9.33;;;;;;;7.09;53.19;100653.31;5010271;28;20049;-73
2023/12/01 03:40:24;;;;;;;27.77;9.20;;;;;;;6.88;54.57;100648.94;5022300;28;20022;-73
2023/12/01 03:42:50;;;;;;;32.77;11.57;;;;;;;6.51;55.55;100656.63;5009616;28;20058;-73
2023/12/01 03:45:16;;;;;;;25.73;9.90;;;;;;;6.56;56.39;100662.69;5007694;28;20037;-73
2023/12/01 03:47:49;;;;;;;28.40;8.63;;;;;;;7.35;53.79;100656.78;5012220;28;20030;-73
2023/12/01 03:50:18;;;;;;;32.80;8.97;;;;;;;6.88;54.21;100664.53;5011314;28;20029;-73
2023/12/01 03:52:45;;;;;;;27.30;8.60;;;;;;;6.84;53.57;100668.00;5012220;28;20014;-73
2023/12/01 03:55:11;;;;;;;26.80;10.23;;;;;;;6.05;55.74;100669.38;5010581;28;20026;-72
2023/12/01 03:57:41;;;;;;;28.50;9.40;;;;;;;5.83;56.82;100673.53;5011888;28;20493;-73
2023/12/01 04:00:13;;;;;;;22.37;9.30;;;;;;;6.06;56.62;100674.56;5002632;28;20505;-72
2023/12/01 04:02:42;;;;;;;27.03;8.67;;;;;;;6.49;55.65;100668.72;5007389;28;20034;-73
2023/12/01 04:05:09;;;;;;;34.73;10.17;;;;;;;5.88;56.93;100677.88;5004311;28;20030;-73
2023/12/01 04:07:35;;;;;;;24.50;8.83;;;;;;;5.82;56.95;100683.00;5008662;28;20033;-73
2023/12/01 04:10:01;;;;;;;31.23;9.00;;;;;;;6.06;56.92;100677.16;5001121;28;20018;-73
2023/12/01 04:12:26;;;;;;;27.27;9.03;;;;;;;6.25;56.91;100672.94;4992017;28;20030;-73
2023/12/01 04:14:51;;;;;;;27.83;8.80;;;;;;;6.31;55.90;100676.44;5024751;28;20033;-73
2023/12/01 04:17:18;;;;;;;22.67;8.70;;;;;;;6.31;55.54;100673.84;4990975;28;20022;-73
2023/12/01 04:19:43;;;;;;;22.93;9.40;;;;;;;5.94;57.05;100688.28;5003606;28;20584;-73
2023/12/01 04:22:08;;;;;;;26.73;8.13;;;;;;;6.31;56.58;100686.81;4994148;28;20026;-73
2023/12/01 04:24:35;;;;;;;22.97;8.77;;;;;;;6.15;56.50;100691.06;5010629;28;20025;-73
2023/12/01 04:27:01;;;;;;;23.50;9.10;;;;;;;6.14;56.23;100700.59;4991397;28;20441;-73
2023/12/01 04:29:29;;;;;;;20.33;7.43;;;;;;;5.73;56.86;100703.72;5001988;28;20021;-73
2023/12/01 04:31:55;;;;;;;23.77;8.07;;;;;;;5.93;56.82;100696.97;4994875;28;20041;-73
2023/12/01 04:34:20;;;;;;;25.73;8.83;;;;;;;5.93;56.69;100702.16;4992507;28;20581;-73
2023/12/01 04:36:46;;;;;;;28.40;8.13;;;;;;;5.60;57.20;100708.81;5005648;28;20099;-73
2023/12/01 04:39:14;;;;;;;16.40;6.53;;;;;;;5.46;58.09;100710.41;4999907;28;20026;-72
2023/12/01 04:41:39;;;;;;;18.60;5.90;;;;;;;5.81;56.35;100704.66;4997113;28;20292;-73
2023/12/01 04:44:05;;;;;;;23.07;7.20;;;;;;;6.26;55.86;100711.03;4990267;28;20120;-73
2023/12/01 04:46:33;;;;;;;22.03;7.30;;;;;;;6.30;55.71;100719.69;5003346;28;20164;-73
2023/12/01 04:48:58;;;;;;;25.90;8.70;;;;;;;6.18;55.50;100723.09;4997637;28;20030;-72
2023/12/01 04:51:24;;;;;;;25.00;8.53;;;;;;;6.72;54.88;100725.09;5025189;28;20478;-72
2023/12/01 04:53:49;;;;;;;20.67;7.13;;;;;;;6.41;55.61;100715.41;5010884;28;20393;-73
2023/12/01 04:56:14;;;;;;;27.97;9.90;;;;;;;6.39;55.26;100721.50;5011296;28;20030;-73
2023/12/01 04:58:40;;;;;;;25.73;8.10;;;;;;;6.18;55.56;100722.22;5009557;28;20030;-73
2023/12/01 05:01:05;;;;;;;23.60;7.33;;;;;;;6.60;54.97;100724.16;5024559;28;20379;-72
2023/12/01 05:03:31;;;;;;;26.47;8.43;;;;;;;6.57;54.69;100729.34;5011987;28;20504;-73
2023/12/01 05:05:58;;;;;;;25.30;7.60;;;;;;;6.44;54.63;100730.16;5009801;28;20029;-72
2023/12/01 05:08:23;;;;;;;27.47;8.23;;;;;;;6.85;54.20;100724.28;5009738;28;20485;-73
2023/12/01 05:10:50;;;;;;;31.00;7.43;;;;;;;6.93;53.89;100725.16;5007301;28;20030;-73
2023/12/01 05:13:15;;;;;;;29.47;7.30;;;;;;;6.71;53.82;100728.56;4998669;28;20025;-73
2023/12/01 05:15:41;;;;;;;28.57;7.87;;;;;;;6.65;53.54;100724.22;5009212;28;20441;-73
2023/12/01 05:18:10;;;;;;;22.70;7.33;;;;;;;7.55;52.29;100733.09;5003620;28;20301;-72
2023/12/01 05:20:36;;;;;;;26.13;7.70;;;;;;;7.22;52.36;100726.13;5009415;28;20028;-73
2023/12/01 05:23:10;;;;;;;31.50;9.03;;;;;;;7.24;53.32;100739.97;5010099;28;20133;-73
2023/12/01 05:25:38;;;;;;;27.10;8.63;;;;;;;6.83;53.21;100733.81;5008667;28;20053;-73
2023/12/01 05:28:05;;;;;;;24.80;8.00;;;;;;;7.42;52.23;100733.97;4993923;28;20632;-72
2023/12/01 05:30:36;;;;;;;29.63;7.90;;;;;;;7.59;51.99;100727.03;5010614;28;20088;-73
2023/12/01 05:33:02;;;;;;;32.07;8.37;;;;;;;7.56;51.14;100736.56;4990737;28;20058;-73
2023/12/01 05:35:28;;;;;;;32.53;9.17;;;;;;;8.07;50.85;100733.97;4993906;28;20026;-73
2023/12/01 05:37:55;;;;;;;30.60;8.80;;;;;;;7.24;52.09;100735.66;4994172;28;20056;-73
2023/12/01 05:40:34;;;;;;;29.97;9.90;;;;;;;7.80;50.95;100746.09;5010244;28;20105;-73
2023/12/01 05:43:00;;;;;;;32.50;10.33;;;;;;;8.02;50.45;100746.09;4991729;28;20506;-73
2023/12/01 05:45:27;;;;;;;27.07;9.87;;;;;;;7.55;51.30;100745.25;5001847;28;20159;-73
2023/12/01 05:47:54;;;;;;;35.63;9.87;;;;;;;7.52;52.17;100746.09;4996793;28;20508;-73
2023/12/01 05:50:24;;;;;;;26.83;8.20;;;;;;;7.82;51.97;100749.59;5010678;28;20452;-73
2023/12/01 05:52:51;;;;;;;32.33;9.33;;;;;;;7.72;51.07;100745.25;4993831;28;20521;-73
2023/12/01 05:55:25;;;;;;;36.63;10.67;;;;;;;7.48;51.57;100747.81;5001328;28;20032;-73
2023/12/01 05:57:51;;;;;;;30.20;8.43;;;;;;;8.04;51.29;100750.44;5009521;28;20038;-73
2023/12/01 06:00:22;;;;;;;33.40;10.33;;;;;;;7.91;50.94;100753.91;4995004;28;20022;-73
2023/12/01 06:02:49;;;;;;;35.17;8.73;;;;;;;8.23;50.08;100756.50;5021434;28;20046;-73
2023/12/01 06:05:15;;;;;;;37.97;9.87;;;;;;;8.21;50.57;100763.44;5009496;28;20045;-73
2023/12/01 06:07:43;;;;;;;30.40;10.27;;;;;;;7.91;50.07;100767.81;4995451;28;20483;-73
2023/12/01 06:10:10;;;;;;;33.77;10.13;;;;;;;8.18;50.35;100763.44;4989234;28;20018;-73
2023/12/01 06:12:37;;;;;;;34.00;10.10;;;;;;;7.67;51.08;100760.00;5001360;28;20025;-73
2023/12/01 06:15:05;;;;;;;37.77;9.67;;;;;;;7.55;51.94;100761.69;5009843;28;20500;-73
2023/12/01 06:17:31;;;;;;;37.47;11.03;;;;;;;7.59;51.93;100768.66;5010051;28;20374;-73
2023/12/01 06:19:56;;;;;;;36.97;11.10;;;;;;;7.04;53.05;100768.53;5008906;28;20040;-73
2023/12/01 06:22:22;;;;;;;34.30;10.73;;;;;;;7.35;51.07;100768.59;4998723;28;20034;-73
2023/12/01 06:24:48;;;;;;;32.93;9.33;;;;;;;7.78;50.84;100773.88;5001974;28;20034;-73
2023/12/01 06:27:13;;;;;;;38.47;11.10;;;;;;;7.60;51.08;100769.53;4999648;28;20124;-73
2023/12/01 06:29:39;;;;;;;32.50;9.53;;;;;;;7.88;51.45;100786.00;4999236;28;20033;-73
2023/12/01 06:32:04;;;;;;;24.97;8.50;;;;;;;7.92;50.83;100782.53;4999121;28;20064;-73
2023/12/01 06:34:30;;;;;;;28.70;8.17;;;;;;;7.75;50.42;100792.97;5011068;28;20049;-73
2023/12/01 06:36:59;;;;;;;34.17;10.60;;;;;;;7.94;50.64;100788.63;5003477;28;20474;-73
2023/12/01 06:39:26;;;;;;;29.93;9.50;;;;;;;7.74;50.72;100782.56;5022579;28;20485;-73
2023/12/01 06:41:55;;;;;;;32.27;8.67;;;;;;;7.72;50.78;100784.25;5007360;28;20081;-73
2023/12/01 06:44:20;;;;;;;34.60;10.43;;;;;;;7.86;50.50;100782.56;5005733;28;20334;-73
2023/12/01 06:46:46;;;;;;;30.97;11.60;;;;;;;7.59;50.59;100786.84;5010945;28;20064;-73
2023/12/01 06:49:11;;;;;;;31.50;11.73;;;;;;;7.33;51.22;100780.75;5003005;28;20029;-73
2023/12/01 06:51:37;;;;;;;31.00;11.23;;;;;;;7.55;50.52;100779.06;5001625;28;20041;-73
2023/12/01 06:54:02;;;;;;;38.13;9.83;;;;;;;7.56;50.30;100781.66;5011262;28;20018;-73
2023/12/01 06:56:27;;;;;;;39.07;11.67;;;;;;;7.28;50.33;100794.59;5005317;28;20390;-73
2023/12/01 06:58:53;;;;;;;42.17;11.27;;;;;;;7.42;50.44;100791.19;5002806;28;20397;-73
2023/12/01 07:01:19;;;;;;;30.07;11.37;;;;;;;7.96;48.71;100794.69;5001380;28;20038;-73
2023/12/01 07:03:47;;;;;;;34.73;11.73;;;;;;;8.20;48.71;100797.28;4999243;28;20022;-73
2023/12/01 07:06:14;;;;;;;27.03;10.00;;;;;;;8.28;48.40;100796.44;5000486;28;20030;-73
2023/12/01 07:08:40;;;;;;;30.97;9.60;;;;;;;7.54;50.05;100790.31;5011665;28;20022;-73
2023/12/01 07:11:09;;;;;;;37.40;10.57;;;;;;;7.49;50.39;100792.91;5011982;28;20084;-73
2023/12/01 07:13:34;;;;;;;31.30;11.00;;;;;;;8.36;48.59;100808.56;5005123;28;20072;-70
2023/12/01 07:16:09;;;;;;;36.80;9.70;;;;;;;8.45;48.64;100816.41;4992904;28;20034;-71
2023/12/01 07:18:35;;;;;;;30.07;9.53;;;;;;;8.29;48.22;100805.97;4998846;28;20037;-71
2023/12/01 07:21:05;;;;;;;27.80;10.17;;;;;;;8.25;48.31;100812.03;5013344;28;20013;-71
2023/12/01 07:23:30;;;;;;;28.97;9.17;;;;;;;8.42;48.19;100813.75;5006817;28;20021;-70
2023/12/01 07:25:56;;;;;;;28.40;10.63;;;;;;;7.97;47.86;100817.25;5004438;28;20068;-70
2023/12/01 07:28:24;;;;;;;33.53;9.33;;;;;;;8.12;48.48;100816.41;5002563;28;20379;-71
2023/12/01 07:30:49;;;;;;;37.00;11.13;;;;;;;8.57;48.07;100816.41;4994189;28;20028;-70
2023/12/01 07:33:15;;;;;;;25.03;8.37;;;;;;;8.06;48.24;100818.13;5009048;28;20022;-70
2023/12/01 07:35:40;;;;;;;35.77;10.53;;;;;;;8.25;48.54;100811.19;5004768;28;20559;-71
2023/12/01 07:38:06;;;;;;;26.70;10.60;;;;;;;8.00;49.02;100819.00;5012058;28;20025;-70
2023/12/01 07:40:32;;;;;;;29.77;9.13;;;;;;;7.93;48.48;100827.69;5001313;28;20055;-70
2023/12/01 07:42:58;;;;;;;25.17;8.77;;;;;;;8.22;48.10;100824.22;5005927;28;20528;-70
2023/12/01 07:45:25;;;;;;;28.87;8.30;;;;;;;8.31;47.18;100817.25;5004009;28;20116;-71
2023/12/01 07:47:52;;;;;;;34.13;9.77;;;;;;;8.48;47.29;100824.22;5000000;28;20108;-71
2023/12/01 07:50:19;;;;;;;32.27;9.07;;;;;;;8.68;47.07;100831.13;4996942;28;20085;-70
2023/12/01 07:52:45;;;;;;;28.30;9.60;;;;;;;8.00;47.30;100823.34;5025176;28;20026;-71
2023/12/01 07:55:11;;;;;;;31.83;7.87;;;;;;;7.67;48.75;100822.44;5008604;28;20104;-70
2023/12/01 07:57:38;;;;;;;27.67;8.43;;;;;;;8.48;48.07;100825.06;5009848;28;20544;-70
2023/12/01 08:00:05;;;;;;;35.37;10.70;;;;;;;8.71;47.92;100829.38;5007908;28;20053;-70
2023/12/01 08:02:31;;;;;;;24.73;9.47;;;;;;;8.60;48.34;100824.19;5003875;28;20052;-70
2023/12/01 08:04:57;;;;;;;29.17;9.30;;;;;;;9.17;47.33;100826.59;4999395;28;20030;-70
2023/12/01 08:07:22;;;;;;;30.77;9.70;;;;;;;9.45;46.53;100823.00;4993554;28;20105;-70
2023/12/01 08:09:48;;;;;;;35.73;9.90;;;;;;;9.02;46.53;100837.09;4996033;28;20030;-70
2023/12/01 08:12:15;;;;;;;34.20;10.40;;;;;;;9.12;46.42;100830.09;4993048;28;20034;-70
2023/12/01 08:14:40;;;;;;;30.40;9.83;;;;;;;8.80;47.28;100836.31;5001619;28;20056;-70
2023/12/01 08:17:06;;;;;;;27.07;9.03;;;;;;;8.62;47.49;100843.28;5009705;28;20038;-70
2023/12/01 08:19:33;;;;;;;32.57;9.47;;;;;;;8.45;48.17;100835.50;5006358;28;20057;-70
2023/12/01 08:21:59;;;;;;;28.50;7.47;;;;;;;8.87;47.15;100840.63;4995190;28;20533;-70
2023/12/01 08:24:25;;;;;;;31.60;9.83;;;;;;;9.32;46.53;100830.88;5005776;28;20060;-70
2023/12/01 08:26:51;;;;;;;26.40;9.43;;;;;;;9.06;47.20;100843.19;5010251;28;20029;-70
2023/12/01 08:29:17;;;;;;;30.70;10.17;;;;;;;9.19;47.48;100831.84;5007080;28;20025;-70
2023/12/01 08:31:45;;;;;;;30.27;8.57;;;;;;;8.57;48.78;100845.06;5009763;28;20033;-70
2023/12/01 08:34:10;;;;;;;32.37;10.30;;;;;;;9.07;48.04;100851.00;5007251;28;20032;-70
2023/12/01 08:36:36;;;;;;;34.10;10.23;;;;;;;9.06;48.03;100849.25;5005335;28;20117;-70
2023/12/01 08:39:04;;;;;;;23.80;8.63;;;;;;;8.98;48.47;100851.91;4995088;28;20030;-70
2023/12/01 08:41:29;;;;;;;39.10;10.17;;;;;;;9.09;48.26;100858.81;4978232;28;20104;-70
2023/12/01 08:43:55;;;;;;;23.27;8.67;;;;;;;8.99;48.43;100853.63;5010328;28;20433;-71
2023/12/01 08:46:21;;;;;;;27.73;8.93;;;;;;;9.08;47.34;100863.19;5004759;28;20057;-70
2023/12/01 08:48:46;;;;;;;28.43;9.00;;;;;;;8.43;49.69;100857.19;5008823;28;20033;-70
2023/12/01 08:51:11;;;;;;;30.10;8.17;;;;;;;8.46;48.76;100862.41;5005612;28;20446;-70
2023/12/01 08:53:37;;;;;;;28.87;11.03;;;;;;;8.41;49.26;100853.72;5011633;28;20075;-70
2023/12/01 08:56:02;;;;;;;28.93;9.20;;;;;;;8.12;49.34;100857.19;5008756;28;20495;-71
2023/12/01 08:58:28;;;;;;;24.10;8.10;;;;;;;8.42;49.18;100864.13;5004514;28;20036;-71
2023/12/01 09:00:53;;;;;;;26.07;9.03;;;;;;;7.94;50.15;100864.13;5010194;28;20069;-71
2023/12/01 09:03:18;;;;;;;27.40;9.77;;;;;;;7.81;51.08;100867.56;5009341;28;20057;-71
2023/12/01 09:05:44;;;;;;;26.33;8.90;;;;;;;8.35;49.62;100874.56;5008945;28;20057;-70
2023/12/01 09:08:09;;;;;;;33.17;9.07;;;;;;;8.40;49.58;100870.22;5016970;28;20060;-71
2023/12/01 09:10:34;;;;;;;28.67;10.53;;;;;;;8.77;48.26;100868.44;5009529;28;20057;-71
2023/12/01 09:13:00;;;;;;;25.37;8.37;;;;;;;8.26;48.67;100876.28;5007586;28;20078;-70
2023/12/01 09:15:25;;;;;;;29.20;7.93;;;;;;;7.72;49.43;100877.94;5010311;28;20030;-71
2023/12/01 09:17:51;;;;;;;28.20;8.57;;;;;;;7.84;49.25;100880.56;4995352;28;20045;-70
2023/12/01 09:20:19;;;;;;;20.50;6.17;;;;;;;7.70;49.33;100884.88;5003269;28;20038;-70
2023/12/01 09:22:44;;;;;;;29.67;9.13;;;;;;;8.04;48.53;100877.16;5011049;28;20056;-70
2023/12/01 09:25:10;;;;;;;23.10;6.73;;;;;;;8.03;48.48;100888.44;5024810;28;20044;-70
2023/12/01 09:27:35;;;;;;;30.87;8.73;;;;;;;7.27;48.92;100896.00;4997940;28;20038;-71
2023/12/01 09:30:01;;;;;;;17.50;5.70;;;;;;;8.56;46.20;100890.22;5009881;28;20110;-72
2023/12/01 09:32:26;;;;;;;23.77;7.00;;;;;;;8.22;46.58;100890.16;5006745;28;20406;-72
2023/12/01 09:34:52;;;;;;;22.87;7.17;;;;;;;8.43;46.25;100891.91;5002041;28;20026;-72
2023/12/01 09:37:17;;;;;;;23.13;6.27;;;;;;;8.72;45.79;100896.25;5006892;28;20033;-72
2023/12/01 09:39:42;;;;;;;18.37;7.10;;;;;;;8.91;45.83;100899.69;4999657;28;20053;-71
2023/12/01 09:42:08;;;;;;;23.47;6.70;;;;;;;8.15;46.17;100899.72;5008505;28;20055;-72
2023/12/01 09:44:35;;;;;;;22.80;7.93;;;;;;;8.78;45.88;100895.41;5009101;28;20036;-71
2023/12/01 09:47:02;;;;;;;18.13;6.77;;;;;;;8.56;46.56;100911.06;5000451;28;20034;-72
2023/12/01 09:49:34;;;;;;;19.37;6.87;;;;;;;9.09;46.63;100905.75;5004215;28;20422;-72
2023/12/01 09:52:03;;;;;;;28.50;7.30;;;;;;;9.46;45.52;100909.09;5009255;28;20040;-72
2023/12/01 09:54:30;;;;;;;24.03;6.70;;;;;;;8.99;45.21;100910.13;5007508;28;20556;-72
2023/12/01 09:57:06;;;;;;;23.17;7.27;;;;;;;8.41;46.16;100916.25;5002879;28;20037;-72
2023/12/01 09:59:35;;;;;;;17.97;6.23;;;;;;;8.82;45.10;100907.56;4997615;28;20481;-72
2023/12/01 10:02:02;;;;;;;29.37;8.17;;;;;;;9.09;44.77;100910.97;4996672;28;20513;-72
2023/12/01 10:04:28;;;;;;;21.90;7.13;;;;;;;8.70;45.75;100918.00;5001778;28;20040;-72
2023/12/01 10:06:54;;;;;;;19.43;6.20;;;;;;;9.03;44.82;100917.06;4999548;28;20030;-72
2023/12/01 10:09:33;;;;;;;25.17;7.67;;;;;;;8.78;45.74;100916.25;4995945;28;20867;-72
2023/12/01 10:12:09;;;;;;;19.83;6.60;;;;;;;8.15;46.60;100914.47;5007417;28;20105;-72
2023/12/01 10:14:35;;;;;;;20.27;6.80;;;;;;;9.02;44.92;100910.09;5008605;28;20167;-72
2023/12/01 10:17:05;;;;;;;22.50;6.67;;;;;;;8.81;45.59;100911.03;5007376;28;20026;-72
2023/12/01 10:19:33;;;;;;;26.07;7.80;;;;;;;8.15;45.64;100911.88;5007922;28;20492;-72
2023/12/01 10:21:59;;;;;;;20.47;6.57;;;;;;;8.11;45.66;100912.72;5007088;28;20633;-72
2023/12/01 10:24:28;;;;;;;24.20;6.80;;;;;;;8.45;45.50;100912.81;5002594;28;20422;-72
2023/12/01 10:26:55;;;;;;;27.47;7.13;;;;;;;9.25;43.72;100907.44;5003832;28;20382;-72
2023/12/01 10:29:28;;;;;;;19.73;6.53;;;;;;;9.33;44.54;100916.09;5007138;28;20022;-72
2023/12/01 10:31:58;;;;;;;24.03;8.70;;;;;;;8.71;44.03;100915.38;5027062;28;20033;-72
2023/12/01 10:34:24;;;;;;;25.00;7.93;;;;;;;9.18;43.64;100910.94;5013639;28;20022;-72
2023/12/01 10:36:52;;;;;;;18.50;6.27;;;;;;;9.66;42.83;100909.00;5011558;28;20026;-72
2023/12/01 10:39:20;;;;;;;20.63;6.20;;;;;;;8.60;43.56;100911.91;5003281;28;20425;-72
2023/12/01 10:41:47;;;;;;;23.83;7.73;;;;;;;8.73;44.22;100918.00;5005727;28;20393;-72
2023/12/01 10:44:18;;;;;;;21.37;6.30;;;;;;;8.94;43.98;100907.53;5022382;28;20108;-72
2023/12/01 10:46:47;;;;;;;21.50;6.93;;;;;;;9.91;42.79;100911.47;5011613;28;20493;-72
2023/12/01 10:49:19;;;;;;;18.43;6.30;;;;;;;8.92;43.77;100919.69;5011174;28;20021;-72
2023/12/01 10:51:45;;;;;;;23.97;7.53;;;;;;;8.65;44.18;100920.59;5012840;28;20025;-72
2023/12/01 10:54:12;;;;;;;23.87;6.93;;;;;;;8.59;43.56;100916.25;4996933;28;20576;-73
2023/12/01 10:56:55;;;;;;;19.80;7.07;;;;;;;8.95;43.19;100911.84;5008863;28;20033;-72
2023/12/01 10:59:23;;;;;;;24.38;7.40;;;;;;;8.19;46.07;100915.31;5007943;28;20036;-73
2023/12/01 11:01:50;;;;;;;15.87;5.33;;;;;;;8.51;44.72;100912.78;5010340;28;20137;-72
2023/12/01 11:04:22;;;;;;;24.13;8.13;;;;;;;9.15;43.92;100913.56;4998287;28;20061;-72
2023/12/01 11:07:09;;;;;;;21.95;7.47;;;;;;;9.39;43.68;100909.13;5011632;28;20478;-73
2023/12/01 11:10:06;;;;;;;25.60;7.20;;;;;;;8.72;44.43;100911.03;5004661;28;20397;-72
2023/12/01 11:13:03;;;;;;;20.57;7.37;;;;;;;8.72;44.64;100911.03;5004195;28;20033;-72
2023/12/01 11:15:33;;;;;;;20.10;6.40;;;;;;;8.80;44.48;100909.28;5009031;28;20049;-71
2023/12/01 11:18:00;;;;;;;20.80;7.47;;;;;;;8.78;44.45;100905.81;5004626;28;20041;-71
2023/12/01 11:20:41;;;;;;;24.87;7.33;;;;;;;8.87;44.59;100903.19;5008497;28;20038;-71